Time;durP1;ratioP1;P1;durP2;ratioP2;P2;SDS_P1;SDS_P2;PMS_P1;PMS_P2;Temp;Humidity;BMP_temperature;BMP_pressure;BME280_temperature;BME280_humidity;BME280_pressure;Samples;Min_cycle;Max_cycle;Signal;HPM_P1;HPM_P2
2023/12/08 00:02:00;;;;;;;5.07;2.07;;;;;;;2.38;100.00;101230.91;5074201;28;20932;-72
2023/12/08 00:04:28;;;;;;;12.30;4.97;;;;;;;2.42;100.00;101231.28;5074452;28;20458;-72
2023/12/08 00:06:55;;;;;;;5.60;2.90;;;;;;;2.44;100.00;101229.22;5074378;28;20485;-72
2023/12/08 00:09:22;;;;;;;6.87;3.63;;;;;;;2.40;100.00;101244.06;5074523;28;20840;-72
2023/12/08 00:11:48;;;;;;;10.20;2.40;;;;;;;2.38;100.00;101232.78;5074311;28;20441;-72
2023/12/08 00:14:15;;;;;;;5.93;2.50;;;;;;;2.41;100.00;101229.66;5073936;28;20514;-72
2023/12/08 00:16:42;;;;;;;7.00;2.30;;;;;;;2.39;100.00;101231.72;5074207;28;20495;-72
2023/12/08 00:19:11;;;;;;;2.17;1.00;;;;;;;2.35;100.00;101223.38;5074078;28;20967;-72
2023/12/08 00:21:39;;;;;;;4.10;1.67;;;;;;;2.36;100.00;101221.53;5074155;28;20527;-72
2023/12/08 00:24:06;;;;;;;7.60;2.70;;;;;;;2.37;100.00;101215.13;5074272;28;20469;-72
2023/12/08 00:26:32;;;;;;;2.27;0.97;;;;;;;2.35;100.00;101204.69;5073960;28;20512;-72
2023/12/08 00:28:59;;;;;;;9.63;3.70;;;;;;;2.29;100.00;101202.91;5074140;28;20525;-72
2023/12/08 00:31:26;;;;;;;2.03;0.77;;;;;;;2.29;100.00;101200.22;5073827;28;20913;-73
2023/12/08 00:33:52;;;;;;;5.00;2.77;;;;;;;2.27;100.00;101211.16;5073888;28;20471;-72
2023/12/08 00:36:19;;;;;;;6.03;2.63;;;;;;;2.27;100.00;101208.50;5073935;28;20519;-72
2023/12/08 00:38:47;;;;;;;3.50;2.00;;;;;;;2.26;100.00;101219.44;5073913;28;20971;-72
2023/12/08 00:41:13;;;;;;;4.93;2.10;;;;;;;2.24;100.00;101210.81;5073591;28;20476;-72
2023/12/08 00:43:40;;;;;;;5.67;1.80;;;;;;;2.32;100.00;101215.81;5073678;28;20453;-72
2023/12/08 00:46:07;;;;;;;4.53;2.00;;;;;;;2.33;100.00;101212.09;5073573;28;20472;-72
2023/12/08 00:48:34;;;;;;;2.60;1.60;;;;;;;2.36;100.00;101216.19;5073485;28;20484;-72
2023/12/08 00:51:00;;;;;;;8.87;2.83;;;;;;;2.35;100.00;101204.69;5073549;28;20917;-72
2023/12/08 00:53:27;;;;;;;10.30;2.50;;;;;;;2.33;100.00;101195.25;5073501;28;20541;-72
2023/12/08 00:55:56;;;;;;;7.10;3.00;;;;;;;2.27;100.00;101192.44;5073643;28;20532;-72
2023/12/08 00:58:22;;;;;;;6.00;2.10;;;;;;;2.27;100.00;101195.13;5073593;28;20483;-72
2023/12/08 01:00:49;;;;;;;5.20;1.87;;;;;;;2.27;100.00;101191.66;5073581;28;20445;-73
2023/12/08 01:03:16;;;;;;;2.60;0.83;;;;;;;2.24;100.00;101192.09;5074073;28;20469;-69
2023/12/08 01:05:43;;;;;;;4.80;1.80;;;;;;;2.22;100.00;101194.19;5073129;28;20477;-73
2023/12/08 01:08:09;;;;;;;9.83;2.50;;;;;;;2.19;100.00;101191.97;5073736;28;20481;-73
2023/12/08 01:10:36;;;;;;;4.37;2.37;;;;;;;2.19;100.00;101200.81;5073213;28;20434;-73
2023/12/08 01:13:04;;;;;;;4.43;2.00;;;;;;;2.16;100.00;101198.59;5073148;28;20943;-73
2023/12/08 01:15:31;;;;;;;2.87;1.10;;;;;;;2.20;100.00;101197.09;5079713;22;20518;-66
2023/12/08 01:17:57;;;;;;;3.00;1.40;;;;;;;2.25;100.00;101191.84;5053143;28;20443;-66
2023/12/08 01:20:24;;;;;;;5.37;2.63;;;;;;;2.24;100.00;101186.75;5053145;28;20938;-66
2023/12/08 01:22:51;;;;;;;3.00;2.30;;;;;;;2.27;100.00;101181.75;5053634;28;20524;-66
2023/12/08 01:25:17;;;;;;;7.87;3.67;;;;;;;2.27;100.00;101181.75;5053317;28;20486;-66
2023/12/08 01:27:44;;;;;;;3.40;1.83;;;;;;;2.30;100.00;101187.69;5053076;28;20569;-66
2023/12/08 01:30:13;;;;;;;3.37;2.03;;;;;;;2.33;100.00;101182.69;5054002;28;20525;-66
2023/12/08 01:32:39;;;;;;;6.57;2.10;;;;;;;2.32;100.00;101174.91;5053367;28;20472;-66
2023/12/08 01:35:06;;;;;;;5.27;2.27;;;;;;;2.34;100.00;101175.47;5053171;28;20487;-66
2023/12/08 01:37:33;;;;;;;5.63;2.93;;;;;;;2.39;100.00;101173.75;5053717;28;20462;-66
2023/12/08 01:40:00;;;;;;;6.13;2.00;;;;;;;2.41;100.00;101163.63;5053722;28;20438;-66
2023/12/08 01:42:26;;;;;;;6.80;3.20;;;;;;;2.41;100.00;101160.16;5053005;28;20873;-66
2023/12/08 01:44:53;;;;;;;6.93;3.40;;;;;;;2.45;100.00;101164.00;5053354;28;20490;-67
2023/12/08 01:47:22;;;;;;;4.90;1.23;;;;;;;2.52;100.00;101162.00;5053351;28;20509;-67
2023/12/08 01:49:49;;;;;;;11.33;5.20;;;;;;;2.55;100.00;101166.88;5053687;28;20434;-66
2023/12/08 01:52:22;;;;;;;4.87;3.40;;;;;;;2.58;100.00;101171.78;5053083;28;21000;-66
2023/12/08 01:54:51;;;;;;;5.40;3.80;;;;;;;2.55;100.00;101166.09;5053068;28;20461;-66
2023/12/08 01:57:18;;;;;;;4.37;3.07;;;;;;;2.57;100.00;101164.81;5053313;28;20443;-66
2023/12/08 01:59:46;;;;;;;6.50;3.67;;;;;;;2.61;100.00;101155.28;5053854;28;20446;-66
2023/12/08 02:02:13;;;;;;;4.90;2.23;;;;;;;2.59;100.00;101160.03;5052789;28;20922;-66
2023/12/08 02:04:44;;;;;;;4.80;1.97;;;;;;;2.61;100.00;101149.94;5056610;28;20457;-66
2023/12/08 02:07:11;;;;;;;6.90;3.20;;;;;;;2.62;100.00;101151.56;5057380;28;20512;-67
2023/12/08 02:09:38;;;;;;;3.60;2.40;;;;;;;2.63;100.00;101150.50;5056898;28;20442;-67
2023/12/08 02:12:06;;;;;;;3.40;2.10;;;;;;;2.62;100.00;101146.19;5056876;28;20537;-66
2023/12/08 02:14:32;;;;;;;6.33;2.37;;;;;;;2.65;100.00;101145.72;5056475;28;20537;-66
2023/12/08 02:17:05;;;;;;;8.23;2.30;;;;;;;2.58;100.00;101147.72;5056571;28;20430;-66
2023/12/08 02:19:32;;;;;;;2.37;1.03;;;;;;;2.54;100.00;101133.19;5056743;28;20453;-66
2023/12/08 02:22:00;;;;;;;3.63;1.50;;;;;;;2.48;100.00;101137.63;5057499;28;20504;-66
2023/12/08 02:24:28;;;;;;;4.10;2.03;;;;;;;2.48;100.00;101136.81;5056444;28;20532;-66
2023/12/08 02:26:55;;;;;;;5.10;2.20;;;;;;;2.50;100.00;101124.00;5058005;28;20926;-66
2023/12/08 02:29:22;;;;;;;3.33;2.10;;;;;;;2.53;100.00;101115.53;5056413;28;20492;-66
2023/12/08 02:31:56;;;;;;;7.47;3.03;;;;;;;2.52;100.00;101120.06;5057214;28;20462;-67
2023/12/08 02:34:26;;;;;;;7.00;4.27;;;;;;;2.53;100.00;101124.34;5055973;28;20458;-66
2023/12/08 02:36:55;;;;;;;3.10;1.50;;;;;;;2.55;100.00;101134.81;5056757;28;20518;-66
2023/12/08 02:39:23;;;;;;;5.23;2.27;;;;;;;2.52;100.00;101120.06;5056321;28;20436;-66
2023/12/08 02:41:51;;;;;;;6.70;1.33;;;;;;;2.51;100.00;101117.59;5056280;28;20445;-66
2023/12/08 02:44:18;;;;;;;3.23;1.70;;;;;;;2.52;100.00;101114.72;5056236;28;20974;-66
2023/12/08 02:46:45;;;;;;;4.93;2.73;;;;;;;2.49;100.00;101111.69;5056284;28;20442;-66
2023/12/08 02:49:11;;;;;;;3.47;1.77;;;;;;;2.46;100.00;101107.59;5055889;28;20549;-66
2023/12/08 02:51:38;;;;;;;12.30;3.13;;;;;;;2.49;100.00;101111.69;5055809;28;20438;-66
2023/12/08 02:54:05;;;;;;;9.30;3.77;;;;;;;2.47;100.00;101098.53;5055919;28;20524;-66
2023/12/08 02:56:31;;;;;;;3.90;1.97;;;;;;;2.45;100.00;101097.97;5056124;28;20446;-66
2023/12/08 02:58:59;;;;;;;4.80;1.47;;;;;;;2.46;100.00;101072.84;5055975;28;20468;-66
2023/12/08 03:01:26;;;;;;;4.60;2.47;;;;;;;2.46;100.00;101080.06;5055928;28;20521;-66
2023/12/08 03:03:56;;;;;;;6.87;2.93;;;;;;;2.48;100.00;101080.66;5055860;28;20493;-66
2023/12/08 03:06:22;;;;;;;7.37;1.97;;;;;;;2.46;100.00;101085.41;5055988;28;20517;-66
2023/12/08 03:08:49;;;;;;;7.50;5.13;;;;;;;2.52;100.00;101087.97;5055363;28;20482;-66
2023/12/08 03:11:16;;;;;;;6.33;4.40;;;;;;;2.55;100.00;101092.03;5055770;28;20473;-66
2023/12/08 03:13:42;;;;;;;6.63;1.97;;;;;;;2.52;100.00;101089.81;5055446;28;20463;-66
2023/12/08 03:16:10;;;;;;;2.43;1.20;;;;;;;2.53;100.00;101081.56;5055374;28;20450;-66
2023/12/08 03:18:37;;;;;;;5.23;2.17;;;;;;;2.52;100.00;101082.63;5055533;28;20503;-66
2023/12/08 03:21:04;;;;;;;9.10;3.90;;;;;;;2.54;100.00;101079.72;5055382;28;20434;-66
2023/12/08 03:23:31;;;;;;;3.13;1.97;;;;;;;2.59;100.00;101071.78;5055253;28;20442;-66
2023/12/08 03:25:57;;;;;;;6.07;2.63;;;;;;;2.60;100.00;101072.59;5055256;28;20552;-66
2023/12/08 03:28:24;;;;;;;12.80;4.93;;;;;;;2.61;100.00;101069.72;5054955;28;20843;-66
2023/12/08 03:30:50;;;;;;;2.93;1.83;;;;;;;2.57;100.00;101065.03;5055274;28;20469;-66
2023/12/08 03:33:18;;;;;;;3.73;1.73;;;;;;;2.52;100.00;101055.88;5055308;28;20938;-67
2023/12/08 03:35:45;;;;;;;5.10;2.23;;;;;;;2.51;100.00;101061.44;5055204;28;20474;-66
2023/12/08 03:38:12;;;;;;;5.60;2.50;;;;;;;2.51;100.00;101062.25;5055149;28;20438;-66
2023/12/08 03:40:38;;;;;;;4.33;2.13;;;;;;;2.54;100.00;101055.66;5055612;28;20517;-66
2023/12/08 03:43:05;;;;;;;5.37;3.60;;;;;;;2.57;100.00;101054.34;5055084;28;20815;-66
2023/12/08 03:45:31;;;;;;;4.93;2.80;;;;;;;2.60;100.00;101038.66;5054639;28;20541;-66
2023/12/08 03:47:58;;;;;;;2.93;1.50;;;;;;;2.65;100.00;101041.41;5054601;28;20518;-66
2023/12/08 03:50:26;;;;;;;4.53;2.27;;;;;;;2.69;100.00;101044.44;5055465;28;20443;-66
2023/12/08 03:52:54;;;;;;;3.30;1.23;;;;;;;2.69;100.00;101039.91;5055040;28;20864;-66
2023/12/08 03:55:21;;;;;;;8.80;3.63;;;;;;;2.64;100.00;101042.47;5054897;28;20992;-66
2023/12/08 03:57:48;;;;;;;4.90;1.00;;;;;;;2.67;100.00;101035.84;5054797;28;20492;-67
2023/12/08 04:00:16;;;;;;;7.20;3.37;;;;;;;2.70;100.00;101030.00;5055202;28;20438;-65
2023/12/08 04:02:42;;;;;;;5.50;3.03;;;;;;;2.68;100.00;101032.94;5055082;28;20442;-66
2023/12/08 04:05:09;;;;;;;5.80;4.57;;;;;;;2.67;100.00;101025.97;5054692;28;20458;-66
2023/12/08 04:07:37;;;;;;;5.10;2.63;;;;;;;2.68;100.00;101030.25;5054719;28;20571;-66
2023/12/08 04:10:04;;;;;;;6.63;3.13;;;;;;;2.69;100.00;101023.03;5054246;28;20523;-66
2023/12/08 04:12:31;;;;;;;3.67;2.00;;;;;;;2.70;100.00;101016.63;5054279;28;20976;-66
2023/12/08 04:14:58;;;;;;;6.87;3.07;;;;;;;2.65;100.00;101005.84;5054304;28;20846;-66
2023/12/08 04:17:24;;;;;;;5.40;2.67;;;;;;;2.67;100.00;100999.22;5054422;28;20842;-66
2023/12/08 04:19:51;;;;;;;5.13;2.13;;;;;;;2.66;100.00;100986.09;5054398;28;20438;-66
2023/12/08 04:22:17;;;;;;;6.27;3.30;;;;;;;2.64;100.00;100985.50;5053886;28;20442;-66
2023/12/08 04:24:45;;;;;;;7.27;2.90;;;;;;;2.65;100.00;100982.59;5054172;28;20498;-66
2023/12/08 04:27:12;;;;;;;3.53;1.60;;;;;;;2.58;100.00;100973.91;5053570;28;20488;-66
2023/12/08 04:29:39;;;;;;;4.20;1.43;;;;;;;2.57;100.00;100969.63;5053668;28;20482;-64
2023/12/08 04:32:06;;;;;;;5.80;3.17;;;;;;;2.57;100.00;100966.09;5053985;28;20434;-64
2023/12/08 04:34:32;;;;;;;5.70;2.30;;;;;;;2.58;100.00;100959.72;5054175;28;20505;-64
2023/12/08 04:36:59;;;;;;;7.20;3.70;;;;;;;2.61;100.00;100957.41;5054052;28;20462;-64
2023/12/08 04:39:26;;;;;;;9.50;2.93;;;;;;;2.58;100.00;100960.53;5054129;28;20444;-64
2023/12/08 04:41:54;;;;;;;11.00;3.67;;;;;;;2.58;100.00;100951.72;5054133;28;20430;-64
2023/12/08 04:44:20;;;;;;;4.10;2.40;;;;;;;2.55;100.00;100949.50;5053960;28;20533;-64
2023/12/08 04:46:46;;;;;;;2.87;0.70;;;;;;;2.55;100.00;100952.19;5053628;28;20521;-64
2023/12/08 04:49:12;;;;;;;8.83;3.40;;;;;;;2.49;100.00;100944.06;5053825;28;20561;-64
2023/12/08 04:51:42;;;;;;;3.57;1.40;;;;;;;2.50;100.00;100940.34;5053866;28;20210;-64
2023/12/08 04:54:08;;;;;;;15.87;2.50;;;;;;;2.48;100.00;100945.13;5053857;28;20554;-63
2023/12/08 04:56:35;;;;;;;7.73;3.17;;;;;;;2.51;100.00;100955.31;5053623;28;20964;-65
2023/12/08 04:59:03;;;;;;;9.93;2.83;;;;;;;2.49;100.00;100951.28;5054089;28;20469;-63
2023/12/08 05:01:30;;;;;;;6.07;2.97;;;;;;;2.47;100.00;100962.19;5054062;28;20541;-65
2023/12/08 05:03:56;;;;;;;8.27;4.27;;;;;;;2.47;100.00;100966.72;5053701;28;20457;-66
2023/12/08 05:06:26;;;;;;;7.50;3.10;;;;;;;2.48;100.00;100973.72;5053812;28;20517;-64
2023/12/08 05:08:53;;;;;;;7.07;4.63;;;;;;;2.50;100.00;100966.25;5054175;28;20478;-64
2023/12/08 05:11:20;;;;;;;6.00;2.30;;;;;;;2.50;100.00;100960.91;5053464;28;20442;-64
2023/12/08 05:13:46;;;;;;;4.20;2.53;;;;;;;2.48;100.00;100955.81;5053702;28;20781;-64
2023/12/08 05:16:15;;;;;;;5.43;2.00;;;;;;;2.45;100.00;100956.28;5053616;28;20493;-64
2023/12/08 05:18:42;;;;;;;4.70;1.27;;;;;;;2.51;100.00;100951.84;5053352;28;20434;-65
2023/12/08 05:21:09;;;;;;;7.93;3.10;;;;;;;2.56;100.00;100964.50;5053743;28;20509;-64
2023/12/08 05:23:35;;;;;;;3.97;2.37;;;;;;;2.55;100.00;100963.69;5053600;28;20489;-64
2023/12/08 05:26:02;;;;;;;4.70;1.23;;;;;;;2.55;100.00;100973.56;5053605;28;20867;-64
2023/12/08 05:28:29;;;;;;;5.93;4.10;;;;;;;2.54;100.00;100972.75;5053504;28;20481;-64
2023/12/08 05:30:55;;;;;;;6.70;4.17;;;;;;;2.55;100.00;100969.03;5053799;28;20883;-64
2023/12/08 05:33:23;;;;;;;6.00;3.10;;;;;;;2.58;100.00;100963.22;5053502;28;20442;-64
2023/12/08 05:35:50;;;;;;;6.37;2.57;;;;;;;2.59;100.00;100958.69;5052750;28;20446;-64
2023/12/08 05:38:17;;;;;;;2.60;1.50;;;;;;;2.51;100.00;100954.50;5056065;28;20440;-64
2023/12/08 05:40:43;;;;;;;5.50;2.00;;;;;;;2.52;100.00;100956.13;5057209;28;20520;-64
2023/12/08 05:43:10;;;;;;;5.50;2.60;;;;;;;2.49;100.00;100959.28;5057268;28;20491;-64
2023/12/08 05:45:37;;;;;;;3.13;1.50;;;;;;;2.49;100.00;100951.28;5056503;28;20458;-64
2023/12/08 05:48:04;;;;;;;3.73;2.40;;;;;;;2.48;100.00;100944.31;5056555;28;20444;-64
2023/12/08 05:50:32;;;;;;;9.53;3.30;;;;;;;2.47;100.00;100950.69;5056604;28;20495;-63
2023/12/08 05:52:58;;;;;;;7.30;2.50;;;;;;;2.39;100.00;100948.38;5056768;28;20477;-63
2023/12/08 05:55:25;;;;;;;6.63;2.90;;;;;;;2.37;100.00;100958.53;5057262;28;20508;-63
2023/12/08 05:57:52;;;;;;;2.50;1.40;;;;;;;2.30;100.00;100945.28;5056849;28;20867;-64
2023/12/08 06:00:20;;;;;;;7.07;2.77;;;;;;;2.34;100.00;100942.94;5056764;28;20525;-64
2023/12/08 06:02:47;;;;;;;2.03;0.87;;;;;;;2.28;100.00;100948.19;5057219;28;20536;-64
2023/12/08 06:05:13;;;;;;;3.70;2.60;;;;;;;2.22;100.00;100949.16;5057491;28;20464;-64
2023/12/08 06:07:41;;;;;;;5.17;3.13;;;;;;;2.24;100.00;100951.56;5057049;28;20443;-64
2023/12/08 06:10:09;;;;;;;5.80;1.73;;;;;;;2.20;100.00;100955.78;5056772;28;20535;-64
2023/12/08 06:12:36;;;;;;;13.60;2.70;;;;;;;2.21;100.00;100955.56;5056881;28;20441;-64
2023/12/08 06:15:03;;;;;;;5.03;2.33;;;;;;;2.18;100.00;100949.88;5056618;28;20895;-64
2023/12/08 06:17:30;;;;;;;2.70;0.93;;;;;;;2.20;100.00;100945.88;5056663;28;20453;-64
2023/12/08 06:19:57;;;;;;;7.13;2.70;;;;;;;2.18;100.00;100941.84;5056341;28;20930;-63
2023/12/08 06:22:23;;;;;;;6.10;2.53;;;;;;;2.14;100.00;100935.34;5056551;28;20445;-63
2023/12/08 06:24:51;;;;;;;3.90;2.30;;;;;;;2.13;100.00;100923.84;5056232;28;20965;-63
2023/12/08 06:27:18;;;;;;;3.03;2.33;;;;;;;2.15;100.00;100924.41;5056291;28;20917;-63
2023/12/08 06:29:44;;;;;;;3.00;1.50;;;;;;;2.14;100.00;100925.47;5056420;28;20854;-63
2023/12/08 06:32:11;;;;;;;5.13;2.93;;;;;;;2.14;100.00;100933.47;5056452;28;20466;-63
2023/12/08 06:34:38;;;;;;;3.50;1.97;;;;;;;2.15;100.00;100926.28;5056454;28;20493;-63
2023/12/08 06:37:04;;;;;;;6.67;4.70;;;;;;;2.15;100.00;100926.28;5056295;28;20442;-63
2023/12/08 06:39:31;;;;;;;6.13;2.50;;;;;;;2.11;100.00;100925.13;5056321;28;20466;-63
2023/12/08 06:41:59;;;;;;;9.93;3.30;;;;;;;2.13;100.00;100929.19;5056363;28;20462;-63
2023/12/08 06:44:25;;;;;;;7.17;2.87;;;;;;;2.16;100.00;100933.22;5056411;28;20541;-63
2023/12/08 06:46:52;;;;;;;4.50;4.07;;;;;;;2.17;100.00;100932.19;5056122;28;20440;-63
2023/12/08 06:49:19;;;;;;;3.70;2.00;;;;;;;2.20;100.00;100937.06;5055222;28;20572;-63
2023/12/08 06:51:45;;;;;;;5.73;3.57;;;;;;;2.24;100.00;100933.69;5055685;28;20444;-63
2023/12/08 06:54:12;;;;;;;2.90;1.10;;;;;;;2.26;100.00;100933.47;5056234;28;20884;-63
2023/12/08 06:56:41;;;;;;;4.43;2.83;;;;;;;2.30;100.00;100933.78;5055594;28;20442;-63
2023/12/08 06:59:10;;;;;;;4.80;3.13;;;;;;;2.25;100.00;100932.63;5055823;28;20522;-63
2023/12/08 07:01:36;;;;;;;4.50;2.93;;;;;;;2.27;100.00;100924.38;5056034;28;20460;-64
2023/12/08 07:04:03;;;;;;;9.17;4.07;;;;;;;2.20;100.00;100908.47;5055758;28;20544;-64
2023/12/08 07:06:30;;;;;;;3.80;3.03;;;;;;;2.20;100.00;100908.47;5055994;28;20431;-64
2023/12/08 07:08:57;;;;;;;7.77;3.07;;;;;;;2.23;100.00;100897.31;5055586;28;20574;-64
2023/12/08 07:11:24;;;;;;;4.60;2.60;;;;;;;2.24;100.00;100904.28;5055744;28;20438;-64
2023/12/08 07:13:50;;;;;;;4.77;2.93;;;;;;;2.18;100.00;100902.56;5055335;28;20516;-64
2023/12/08 07:16:18;;;;;;;4.00;1.80;;;;;;;2.16;100.00;100891.28;5070489;22;20581;-70
2023/12/08 07:18:45;;;;;;;7.00;3.03;;;;;;;2.18;100.00;100893.75;5055946;28;20466;-72
2023/12/08 07:21:12;;;;;;;3.13;2.10;;;;;;;2.19;100.00;100895.38;5055805;28;20488;-70
2023/12/08 07:23:39;;;;;;;7.63;3.63;;;;;;;2.17;100.00;100876.91;5057349;28;20489;-74
2023/12/08 07:26:06;;;;;;;2.87;2.00;;;;;;;2.19;100.00;100884.69;5056253;28;20465;-76
2023/12/08 07:28:33;;;;;;;5.33;2.67;;;;;;;2.10;100.00;100888.78;5057475;28;20861;-74
2023/12/08 07:30:59;;;;;;;5.90;3.00;;;;;;;2.12;100.00;100890.16;5055970;28;20481;-73
2023/12/08 07:33:27;;;;;;;3.10;2.10;;;;;;;2.14;100.00;100888.06;5055399;28;20506;-71
2023/12/08 07:35:54;;;;;;;5.47;3.37;;;;;;;2.19;100.00;100895.38;5055712;28;20474;-71
2023/12/08 07:38:21;;;;;;;4.83;3.80;;;;;;;2.21;100.00;100894.09;5055879;28;20438;-71
2023/12/08 07:40:48;;;;;;;4.10;1.57;;;;;;;2.24;100.00;100896.25;5055749;28;20481;-71
2023/12/08 07:43:14;;;;;;;5.40;1.73;;;;;;;2.22;100.00;100885.00;5055996;28;20474;-71
2023/12/08 07:45:41;;;;;;;7.63;3.80;;;;;;;2.20;100.00;100883.63;5055559;28;20468;-72
2023/12/08 07:48:08;;;;;;;9.47;4.10;;;;;;;2.22;100.00;100882.34;5056063;28;20443;-72
2023/12/08 07:50:36;;;;;;;8.33;2.97;;;;;;;2.23;100.00;100893.84;5055894;28;20568;-72
2023/12/08 07:53:03;;;;;;;3.83;1.47;;;;;;;2.30;100.00;100883.00;5056132;28;20526;-72
2023/12/08 07:55:29;;;;;;;2.60;0.70;;;;;;;2.30;100.00;100891.00;5055825;28;20553;-72
2023/12/08 07:57:56;;;;;;;1.90;0.50;;;;;;;2.21;100.00;100888.75;5055841;28;20477;-72
2023/12/08 08:00:23;;;;;;;2.70;1.20;;;;;;;2.21;100.00;100877.22;5055002;28;20525;-72
2023/12/08 08:02:49;;;;;;;2.97;1.63;;;;;;;2.26;100.00;100874.66;5055841;28;20447;-72
2023/12/08 08:05:17;;;;;;;3.63;1.47;;;;;;;2.27;100.00;100877.09;5055509;28;20466;-71
2023/12/08 08:07:45;;;;;;;2.10;1.00;;;;;;;2.27;100.00;100885.09;5055789;28;20441;-71
2023/12/08 08:10:11;;;;;;;7.40;3.40;;;;;;;2.31;100.00;100888.13;5055746;28;20482;-70
2023/12/08 08:12:38;;;;;;;2.60;1.43;;;;;;;2.28;100.00;100885.91;5055955;28;20474;-70
2023/12/08 08:15:06;;;;;;;8.80;2.70;;;;;;;2.22;100.00;100881.53;5055273;28;20508;-71
2023/12/08 08:17:33;;;;;;;5.70;2.10;;;;;;;2.18;100.00;100875.84;5055772;28;20454;-71
2023/12/08 08:20:00;;;;;;;9.70;4.00;;;;;;;2.13;100.00;100878.44;5055760;28;20439;-71
2023/12/08 08:22:26;;;;;;;6.53;3.73;;;;;;;2.11;100.00;100885.03;5055111;28;20492;-71
2023/12/08 08:24:54;;;;;;;5.10;1.97;;;;;;;2.20;100.00;100891.63;5054767;28;20545;-71
2023/12/08 08:27:21;;;;;;;3.20;1.97;;;;;;;2.20;100.00;100892.44;5054796;28;20521;-71
2023/12/08 08:29:48;;;;;;;4.43;2.20;;;;;;;2.25;100.00;100895.22;5055012;28;21035;-71
2023/12/08 08:32:17;;;;;;;5.53;2.40;;;;;;;2.30;100.00;100886.47;5054631;28;20504;-71
2023/12/08 08:34:43;;;;;;;4.00;2.20;;;;;;;2.30;100.00;100883.00;5054744;28;20466;-69
2023/12/08 08:37:11;;;;;;;6.67;2.67;;;;;;;2.31;100.00;100882.78;5054435;28;20439;-69
2023/12/08 08:39:38;;;;;;;5.73;1.63;;;;;;;2.35;100.00;100883.13;5054109;28;20438;-70
2023/12/08 08:42:06;;;;;;;5.93;4.63;;;;;;;2.33;100.00;100874.50;5054224;28;20942;-71
2023/12/08 08:44:34;;;;;;;6.03;2.77;;;;;;;2.33;100.00;100869.16;5054951;28;20541;-70
2023/12/08 08:47:00;;;;;;;4.50;3.13;;;;;;;2.31;100.00;100872.09;5054671;28;20529;-70
2023/12/08 08:49:27;;;;;;;12.40;3.57;;;;;;;2.30;100.00;100880.31;5054667;28;20490;-73
2023/12/08 08:51:54;;;;;;;5.93;2.80;;;;;;;2.30;100.00;100869.63;5054617;28;20473;-73
2023/12/08 08:54:20;;;;;;;7.63;2.97;;;;;;;2.35;100.00;100872.44;5054558;28;20458;-71
2023/12/08 08:56:47;;;;;;;4.63;2.47;;;;;;;2.38;100.00;100866.56;5054011;28;20958;-71
2023/12/08 08:59:15;;;;;;;9.13;2.57;;;;;;;2.40;100.00;100870.66;5054574;28;20442;-71
2023/12/08 09:01:42;;;;;;;4.10;3.70;;;;;;;2.42;100.00;100863.19;5054613;28;20821;-71
2023/12/08 09:04:08;;;;;;;10.90;4.00;;;;;;;2.52;100.00;100867.91;5054068;28;20867;-72
2023/12/08 09:06:35;;;;;;;3.57;2.03;;;;;;;2.55;100.00;100872.78;5053626;28;20533;-71
2023/12/08 09:09:03;;;;;;;4.50;2.57;;;;;;;2.57;100.00;100881.38;5054139;28;20438;-71
2023/12/08 09:11:30;;;;;;;3.23;1.50;;;;;;;2.55;100.00;100871.97;5053759;28;20442;-71
2023/12/08 09:13:57;;;;;;;7.70;4.30;;;;;;;2.58;100.00;100869.63;5053630;28;20462;-71
2023/12/08 09:16:25;;;;;;;3.90;1.90;;;;;;;2.63;100.00;100860.88;5053479;28;20454;-71
2023/12/08 09:18:52;;;;;;;4.43;2.80;;;;;;;2.60;100.00;100853.34;5054003;28;20434;-71
2023/12/08 09:21:19;;;;;;;4.17;2.93;;;;;;;2.61;100.00;100852.28;5053777;28;20470;-71
2023/12/08 09:23:47;;;;;;;3.70;2.07;;;;;;;2.63;100.00;100856.34;5053192;28;20497;-71
2023/12/08 09:26:14;;;;;;;5.23;3.03;;;;;;;2.58;100.00;100850.09;5053466;28;20446;-71
2023/12/08 09:28:40;;;;;;;3.07;1.63;;;;;;;2.65;100.00;100851.56;5053754;28;20446;-71
2023/12/08 09:31:07;;;;;;;3.63;3.17;;;;;;;2.66;100.00;100847.84;5053250;28;20488;-71
2023/12/08 09:33:35;;;;;;;7.73;2.33;;;;;;;2.64;100.00;100841.91;5053103;28;20481;-71
2023/12/08 09:36:02;;;;;;;7.60;3.50;;;;;;;2.60;100.00;100840.78;5053566;28;20469;-71
2023/12/08 09:38:28;;;;;;;7.30;3.80;;;;;;;2.67;100.00;100844.13;5053500;28;20444;-71
2023/12/08 09:40:55;;;;;;;10.13;2.83;;;;;;;2.72;100.00;100838.84;5054189;28;20434;-72
2023/12/08 09:43:27;;;;;;;15.73;4.50;;;;;;;2.70;100.00;100838.28;5053010;28;20442;-72
2023/12/08 09:45:55;;;;;;;3.10;1.90;;;;;;;2.76;100.00;100826.59;5053177;28;20822;-72
2023/12/08 09:48:26;;;;;;;7.63;3.17;;;;;;;2.81;100.00;100833.09;5053707;28;20442;-71
2023/12/08 09:50:56;;;;;;;6.30;3.40;;;;;;;2.83;100.00;100830.97;5052919;28;20553;-71
2023/12/08 09:53:23;;;;;;;5.57;2.87;;;;;;;2.90;100.00;100834.31;5052938;28;20469;-71
2023/12/08 09:55:52;;;;;;;4.83;2.93;;;;;;;2.85;100.00;100812.84;5053584;28;20472;-72
2023/12/08 09:58:19;;;;;;;6.33;2.00;;;;;;;2.93;100.00;100821.25;5052887;28;20937;-71
2023/12/08 10:00:49;;;;;;;9.43;2.67;;;;;;;2.94;100.00;100811.38;5053709;28;20473;-71
2023/12/08 10:03:16;;;;;;;6.17;1.97;;;;;;;2.97;100.00;100805.53;5052968;28;20434;-72
2023/12/08 10:05:42;;;;;;;8.10;2.97;;;;;;;2.95;100.00;100794.25;5052688;28;20551;-72
2023/12/08 10:08:11;;;;;;;3.03;1.70;;;;;;;2.93;99.36;100804.41;5053322;28;20521;-71
2023/12/08 10:10:37;;;;;;;2.43;1.43;;;;;;;2.94;98.85;100793.44;5052711;28;21088;-71
2023/12/08 10:13:05;;;;;;;3.03;0.90;;;;;;;2.92;99.43;100790.22;5052692;28;20812;-71
2023/12/08 10:15:31;;;;;;;6.43;2.37;;;;;;;2.94;99.45;100790.78;5052921;28;20485;-71
2023/12/08 10:17:58;;;;;;;3.93;2.30;;;;;;;2.84;98.97;100785.28;5052580;28;20442;-71
2023/12/08 10:20:25;;;;;;;16.80;4.00;;;;;;;2.78;99.16;100789.72;5053018;28;20521;-71
2023/12/08 10:22:53;;;;;;;7.07;2.63;;;;;;;2.83;99.83;100782.81;5052883;28;20919;-71
2023/12/08 10:25:22;;;;;;;15.63;3.30;;;;;;;2.80;99.45;100797.53;5055567;28;20545;-71
2023/12/08 10:27:50;;;;;;;7.80;3.20;;;;;;;2.80;99.15;100796.72;5056850;28;20869;-71
2023/12/08 10:30:18;;;;;;;5.80;3.47;;;;;;;2.79;99.58;100790.56;5056229;28;20482;-71
2023/12/08 10:32:46;;;;;;;7.23;3.00;;;;;;;2.76;100.00;100781.16;5056474;28;20526;-71
2023/12/08 10:35:13;;;;;;;6.03;2.40;;;;;;;2.77;99.41;100776.59;5055975;28;21005;-71
2023/12/08 10:37:40;;;;;;;5.70;4.33;;;;;;;2.78;99.73;100779.03;5055921;28;20945;-71
2023/12/08 10:40:08;;;;;;;3.03;1.43;;;;;;;2.81;99.96;100783.09;5056982;28;20457;-71
2023/12/08 10:42:37;;;;;;;5.90;3.20;;;;;;;2.77;99.88;100773.94;5056149;28;20439;-71
2023/12/08 10:45:10;;;;;;;3.33;1.53;;;;;;;2.71;99.75;100777.59;5056086;28;20468;-71
2023/12/08 10:47:38;;;;;;;4.87;2.53;;;;;;;2.77;99.76;100774.72;5055818;28;20504;-71
2023/12/08 10:50:06;;;;;;;3.03;1.47;;;;;;;2.73;99.66;100773.59;5056019;28;20577;-71
2023/12/08 10:52:33;;;;;;;7.30;2.93;;;;;;;2.67;99.81;100769.25;5057200;28;20462;-69
2023/12/08 10:55:00;;;;;;;6.40;1.40;;;;;;;2.66;100.00;100772.97;5056162;28;20458;-73
2023/12/08 10:57:26;;;;;;;10.07;4.50;;;;;;;2.66;99.94;100754.25;5056649;28;20446;-70
2023/12/08 10:59:58;;;;;;;3.70;2.20;;;;;;;2.62;99.41;100747.78;5056020;28;20971;-71
2023/12/08 11:02:31;;;;;;;6.70;2.67;;;;;;;2.67;100.00;100752.38;5056344;28;20451;-70
2023/12/08 11:05:06;;;;;;;4.50;2.60;;;;;;;2.68;99.86;100754.00;5055449;28;20984;-73
2023/12/08 11:07:34;;;;;;;5.73;2.80;;;;;;;2.70;100.00;100752.72;5055736;28;20422;-70
2023/12/08 11:10:07;;;;;;;5.93;2.83;;;;;;;2.71;100.00;100748.16;5055746;28;20571;-74
2023/12/08 11:12:37;;;;;;;4.13;1.93;;;;;;;2.74;100.00;100743.13;5056046;28;20437;-74
2023/12/08 11:15:15;;;;;;;5.90;2.77;;;;;;;2.73;100.00;100754.88;5055811;28;20549;-70
2023/12/08 11:17:47;;;;;;;5.97;3.33;;;;;;;2.77;100.00;100753.34;5055307;28;20426;-70
2023/12/08 11:20:15;;;;;;;5.67;3.57;;;;;;;2.77;100.00;100742.63;5055627;28;20477;-70
2023/12/08 11:22:43;;;;;;;3.10;1.87;;;;;;;2.81;99.90;100747.50;5055486;28;20514;-70
2023/12/08 11:25:18;;;;;;;5.80;3.73;;;;;;;2.75;99.46;100744.75;5055801;28;20458;-71